INFORMACIÓN METAR y TAF
METAR FOR EYVI
ADDS - METARS form results

(0136 UTC 15 August 2020)
Data provider http://aviationweather.gov/metar/data/
 
METAR text: EYVI 150120Z 17005KT CAVOK 13/09 Q1018 NOSIG
Conditions at: EYVI (VILNIUS INTL , LT) observed 0120 UTC 15 August 2020
Temperature: 13.0°C (55°F)
Dewpoint: 9.0°C (48°F) [RH = 77%]
Pressure (altimeter): 30.06 inches Hg (1018.0 mb)
Winds: from the S (170 degrees) at 6 MPH (5 knots; 2.6 m/s)
Visibility: 6 or more miles (10+ km)
Ceiling: ceiling and visibility are OK
Clouds: unknown
Weather: no significant weather observed at this time

METAR text: EYVI 150050Z 16008KT CAVOK 13/09 Q1018 NOSIG
Conditions at: EYVI (VILNIUS INTL , LT) observed 0050 UTC 15 August 2020
Temperature: 13.0°C (55°F)
Dewpoint: 9.0°C (48°F) [RH = 77%]
Pressure (altimeter): 30.06 inches Hg (1018.0 mb)
Winds: from the SSE (160 degrees) at 9 MPH (8 knots; 4.1 m/s)
Visibility: 6 or more miles (10+ km)
Ceiling: ceiling and visibility are OK
Clouds: unknown
Weather: no significant weather observed at this time

Forecast for: EYVI (VILNIUS INTL , LT)
Text: TAF EYVI 142300Z 1500/1524 VRB05KT 9000 NSC
Forecast period: 0000 UTC 15 August 2020 to 0000 UTC 16 August 2020
Forecast type: FROM: standard forecast or significant change
Winds: variable direction winds at 6 MPH (5 knots; 2.6 m/s)
Visibility: 6 miles (9 km)
Ceiling: unknown
Clouds: missing
Weather: no significant weather forecast for this period

MAPA DE AEROPUERTO

INFORMACIÓN DE PISTA
Pista 02 Longitud 8251 ft Ancho 164 ft
Elevación 594 ft Umbral desplazado 0 ft Rumbo de pista 22
Pista 20 Longitud 8251 ft Ancho 164 ft
Elevación 646 ft Umbral desplazado 0 ft Rumbo de pista 202

FRECUANCIAS DEL AEROPUERTO
Tipo APP Nombre APP Frecuencia 120.7 MHZ
Tipo ATIS Nombre ATIS Frecuencia 125.8 MHZ
Tipo TWR Nombre TWR Frecuencia 118.2 MHZ

RADIO AYUDAS DEL AEROPUERTO
Tipo NDB Nombre Vilnius Frecuencia 385 KHZ
Tipo VOR-DME Nombre Vilnius Frecuencia 113800 KHZ